sensor_id;sensor_type;location;lat;lon;timestamp;P1;durP1;ratioP1;P2;durP2;ratioP2
71360;SDS011;59166;48.908;1.870;2023-03-01T00:01:20;22.27;;;7.87;;
71360;SDS011;59166;48.908;1.870;2023-03-01T00:06:22;20.30;;;8.18;;
71360;SDS011;59166;48.908;1.870;2023-03-01T00:11:24;18.70;;;6.78;;
71360;SDS011;59166;48.908;1.870;2023-03-01T00:16:27;16.27;;;6.60;;
71360;SDS011;59166;48.908;1.870;2023-03-01T00:21:29;17.05;;;6.10;;
71360;SDS011;59166;48.908;1.870;2023-03-01T00:26:31;14.47;;;5.80;;
71360;SDS011;59166;48.908;1.870;2023-03-01T00:31:32;16.60;;;6.73;;
71360;SDS011;59166;48.908;1.870;2023-03-01T00:36:34;15.18;;;5.80;;
71360;SDS011;59166;48.908;1.870;2023-03-01T00:41:37;11.90;;;4.13;;
71360;SDS011;59166;48.908;1.870;2023-03-01T00:46:38;14.97;;;5.70;;
71360;SDS011;59166;48.908;1.870;2023-03-01T00:51:38;16.80;;;5.85;;
71360;SDS011;59166;48.908;1.870;2023-03-01T00:56:40;9.40;;;3.27;;
71360;SDS011;59166;48.908;1.870;2023-03-01T01:01:41;13.95;;;5.68;;
71360;SDS011;59166;48.908;1.870;2023-03-01T01:06:42;13.43;;;5.17;;
71360;SDS011;59166;48.908;1.870;2023-03-01T01:11:46;9.77;;;3.05;;
71360;SDS011;59166;48.908;1.870;2023-03-01T01:16:47;15.63;;;6.03;;
71360;SDS011;59166;48.908;1.870;2023-03-01T01:21:48;6.07;;;2.45;;
71360;SDS011;59166;48.908;1.870;2023-03-01T01:26:50;17.17;;;6.37;;
71360;SDS011;59166;48.908;1.870;2023-03-01T01:31:51;16.48;;;6.53;;
71360;SDS011;59166;48.908;1.870;2023-03-01T01:36:52;14.90;;;5.57;;
71360;SDS011;59166;48.908;1.870;2023-03-01T01:41:54;13.77;;;5.00;;
71360;SDS011;59166;48.908;1.870;2023-03-01T01:46:55;14.60;;;5.40;;
71360;SDS011;59166;48.908;1.870;2023-03-01T01:52:06;16.43;;;5.93;;
71360;SDS011;59166;48.908;1.870;2023-03-01T01:57:13;15.60;;;5.85;;
71360;SDS011;59166;48.908;1.870;2023-03-01T02:02:18;13.57;;;4.72;;
71360;SDS011;59166;48.908;1.870;2023-03-01T02:07:20;16.60;;;6.03;;
71360;SDS011;59166;48.908;1.870;2023-03-01T02:12:26;16.63;;;6.80;;
71360;SDS011;59166;48.908;1.870;2023-03-01T02:17:26;15.00;;;4.97;;
71360;SDS011;59166;48.908;1.870;2023-03-01T02:22:28;15.90;;;6.03;;
71360;SDS011;59166;48.908;1.870;2023-03-01T02:27:33;17.23;;;5.43;;
71360;SDS011;59166;48.908;1.870;2023-03-01T02:32:42;16.77;;;6.40;;
71360;SDS011;59166;48.908;1.870;2023-03-01T02:37:43;16.50;;;5.93;;
71360;SDS011;59166;48.908;1.870;2023-03-01T02:42:46;15.18;;;5.80;;
71360;SDS011;59166;48.908;1.870;2023-03-01T02:47:52;16.40;;;6.00;;
71360;SDS011;59166;48.908;1.870;2023-03-01T02:52:55;16.50;;;6.20;;
71360;SDS011;59166;48.908;1.870;2023-03-01T02:58:02;16.13;;;5.35;;
71360;SDS011;59166;48.908;1.870;2023-03-01T03:03:04;16.25;;;5.95;;
71360;SDS011;59166;48.908;1.870;2023-03-01T03:08:05;16.83;;;6.00;;
71360;SDS011;59166;48.908;1.870;2023-03-01T03:13:07;15.70;;;5.85;;
71360;SDS011;59166;48.908;1.870;2023-03-01T03:18:13;15.17;;;6.13;;
71360;SDS011;59166;48.908;1.870;2023-03-01T03:23:15;19.70;;;5.90;;
71360;SDS011;59166;48.908;1.870;2023-03-01T03:28:16;14.23;;;5.13;;
71360;SDS011;59166;48.908;1.870;2023-03-01T03:33:18;16.65;;;6.45;;
71360;SDS011;59166;48.908;1.870;2023-03-01T03:38:19;16.98;;;5.57;;
71360;SDS011;59166;48.908;1.870;2023-03-01T03:43:20;18.30;;;5.97;;
71360;SDS011;59166;48.908;1.870;2023-03-01T03:48:24;16.92;;;6.35;;
71360;SDS011;59166;48.908;1.870;2023-03-01T03:53:26;13.95;;;5.13;;
71360;SDS011;59166;48.908;1.870;2023-03-01T03:58:27;15.17;;;5.77;;
71360;SDS011;59166;48.908;1.870;2023-03-01T04:03:30;15.88;;;6.15;;
71360;SDS011;59166;48.908;1.870;2023-03-01T04:08:31;16.03;;;5.83;;
71360;SDS011;59166;48.908;1.870;2023-03-01T04:13:32;17.23;;;6.45;;
71360;SDS011;59166;48.908;1.870;2023-03-01T04:18:34;16.17;;;6.57;;
71360;SDS011;59166;48.908;1.870;2023-03-01T04:23:35;15.32;;;6.10;;
71360;SDS011;59166;48.908;1.870;2023-03-01T04:28:36;17.00;;;5.73;;
71360;SDS011;59166;48.908;1.870;2023-03-01T04:33:39;15.07;;;5.80;;
71360;SDS011;59166;48.908;1.870;2023-03-01T04:38:41;17.23;;;6.10;;
71360;SDS011;59166;48.908;1.870;2023-03-01T04:43:42;17.02;;;6.25;;
71360;SDS011;59166;48.908;1.870;2023-03-01T04:48:45;14.87;;;5.90;;
71360;SDS011;59166;48.908;1.870;2023-03-01T04:53:46;16.15;;;6.45;;
71360;SDS011;59166;48.908;1.870;2023-03-01T04:58:47;17.65;;;6.75;;
71360;SDS011;59166;48.908;1.870;2023-03-01T05:03:49;17.03;;;6.53;;
71360;SDS011;59166;48.908;1.870;2023-03-01T05:08:51;16.87;;;6.87;;
71360;SDS011;59166;48.908;1.870;2023-03-01T05:13:52;17.33;;;6.53;;
71360;SDS011;59166;48.908;1.870;2023-03-01T05:18:54;19.73;;;7.10;;
71360;SDS011;59166;48.908;1.870;2023-03-01T05:23:54;15.77;;;6.50;;
71360;SDS011;59166;48.908;1.870;2023-03-01T05:28:55;18.00;;;6.77;;
71360;SDS011;59166;48.908;1.870;2023-03-01T05:33:57;16.42;;;6.20;;
71360;SDS011;59166;48.908;1.870;2023-03-01T05:38:58;18.77;;;7.07;;
71360;SDS011;59166;48.908;1.870;2023-03-01T05:43:58;18.60;;;7.47;;
71360;SDS011;59166;48.908;1.870;2023-03-01T05:49:00;17.65;;;7.20;;
71360;SDS011;59166;48.908;1.870;2023-03-01T05:54:01;19.67;;;6.97;;
71360;SDS011;59166;48.908;1.870;2023-03-01T05:59:02;18.67;;;6.85;;
71360;SDS011;59166;48.908;1.870;2023-03-01T06:04:05;19.30;;;7.67;;
71360;SDS011;59166;48.908;1.870;2023-03-01T06:09:06;19.35;;;7.63;;
71360;SDS011;59166;48.908;1.870;2023-03-01T06:14:07;19.98;;;7.22;;
71360;SDS011;59166;48.908;1.870;2023-03-01T06:19:10;21.20;;;8.27;;
71360;SDS011;59166;48.908;1.870;2023-03-01T06:24:10;17.17;;;7.00;;
71360;SDS011;59166;48.908;1.870;2023-03-01T06:29:11;21.45;;;7.97;;
71360;SDS011;59166;48.908;1.870;2023-03-01T06:34:13;23.93;;;9.67;;
71360;SDS011;59166;48.908;1.870;2023-03-01T06:39:14;20.47;;;8.67;;
71360;SDS011;59166;48.908;1.870;2023-03-01T06:44:15;27.13;;;10.90;;
71360;SDS011;59166;48.908;1.870;2023-03-01T06:49:17;24.43;;;10.20;;
71360;SDS011;59166;48.908;1.870;2023-03-01T06:54:17;22.10;;;8.60;;
71360;SDS011;59166;48.908;1.870;2023-03-01T06:59:18;28.13;;;9.63;;
71360;SDS011;59166;48.908;1.870;2023-03-01T07:04:20;27.23;;;10.15;;
71360;SDS011;59166;48.908;1.870;2023-03-01T07:09:21;27.77;;;10.67;;
71360;SDS011;59166;48.908;1.870;2023-03-01T07:14:22;28.70;;;11.57;;
71360;SDS011;59166;48.908;1.870;2023-03-01T07:19:24;26.45;;;10.30;;
71360;SDS011;59166;48.908;1.870;2023-03-01T07:24:25;24.13;;;8.57;;
71360;SDS011;59166;48.908;1.870;2023-03-01T07:29:25;22.40;;;9.35;;
71360;SDS011;59166;48.908;1.870;2023-03-01T07:34:28;24.27;;;9.97;;
71360;SDS011;59166;48.908;1.870;2023-03-01T07:39:28;29.10;;;11.73;;
71360;SDS011;59166;48.908;1.870;2023-03-01T07:44:29;26.57;;;10.77;;
71360;SDS011;59166;48.908;1.870;2023-03-01T07:49:31;29.53;;;12.07;;
71360;SDS011;59166;48.908;1.870;2023-03-01T07:54:32;27.08;;;12.05;;
71360;SDS011;59166;48.908;1.870;2023-03-01T07:59:32;32.57;;;12.07;;
71360;SDS011;59166;48.908;1.870;2023-03-01T08:04:34;29.70;;;12.07;;
71360;SDS011;59166;48.908;1.870;2023-03-01T08:09:35;30.33;;;12.25;;
71360;SDS011;59166;48.908;1.870;2023-03-01T08:14:36;29.52;;;12.60;;
71360;SDS011;59166;48.908;1.870;2023-03-01T08:19:38;27.83;;;11.77;;
71360;SDS011;59166;48.908;1.870;2023-03-01T08:24:38;23.00;;;10.33;;
71360;SDS011;59166;48.908;1.870;2023-03-01T08:29:39;28.13;;;11.70;;
71360;SDS011;59166;48.908;1.870;2023-03-01T08:34:41;27.17;;;12.50;;
71360;SDS011;59166;48.908;1.870;2023-03-01T08:39:42;25.77;;;11.27;;
71360;SDS011;59166;48.908;1.870;2023-03-01T08:44:42;20.53;;;8.87;;
71360;SDS011;59166;48.908;1.870;2023-03-01T08:49:44;16.70;;;8.20;;
71360;SDS011;59166;48.908;1.870;2023-03-01T08:54:46;20.52;;;8.27;;
71360;SDS011;59166;48.908;1.870;2023-03-01T08:59:47;25.90;;;10.90;;
71360;SDS011;59166;48.908;1.870;2023-03-01T09:04:49;20.03;;;9.23;;
71360;SDS011;59166;48.908;1.870;2023-03-01T09:09:50;24.10;;;10.88;;
71360;SDS011;59166;48.908;1.870;2023-03-01T09:14:50;24.60;;;11.53;;
71360;SDS011;59166;48.908;1.870;2023-03-01T09:19:52;23.47;;;10.83;;
71360;SDS011;59166;48.908;1.870;2023-03-01T09:24:53;20.55;;;8.43;;
71360;SDS011;59166;48.908;1.870;2023-03-01T09:29:53;16.00;;;6.70;;
71360;SDS011;59166;48.908;1.870;2023-03-01T09:34:55;24.00;;;10.30;;
71360;SDS011;59166;48.908;1.870;2023-03-01T09:39:56;18.27;;;8.40;;
71360;SDS011;59166;48.908;1.870;2023-03-01T09:44:57;23.47;;;9.47;;
71360;SDS011;59166;48.908;1.870;2023-03-01T09:50:04;21.90;;;10.32;;
71360;SDS011;59166;48.908;1.870;2023-03-01T09:55:12;22.00;;;9.80;;
71360;SDS011;59166;48.908;1.870;2023-03-01T10:00:16;23.47;;;10.37;;
71360;SDS011;59166;48.908;1.870;2023-03-01T10:05:31;23.25;;;10.57;;
71360;SDS011;59166;48.908;1.870;2023-03-01T10:10:37;15.93;;;6.47;;
71360;SDS011;59166;48.908;1.870;2023-03-01T10:15:40;15.30;;;6.90;;
71360;SDS011;59166;48.908;1.870;2023-03-01T10:20:46;20.30;;;9.80;;
71360;SDS011;59166;48.908;1.870;2023-03-01T10:25:56;20.52;;;9.32;;
71360;SDS011;59166;48.908;1.870;2023-03-01T10:31:04;16.10;;;6.43;;
71360;SDS011;59166;48.908;1.870;2023-03-01T10:36:12;20.63;;;9.23;;
71360;SDS011;59166;48.908;1.870;2023-03-01T10:41:13;20.85;;;9.75;;
71360;SDS011;59166;48.908;1.870;2023-03-01T10:46:23;22.63;;;9.97;;
71360;SDS011;59166;48.908;1.870;2023-03-01T10:51:27;14.18;;;4.70;;
71360;SDS011;59166;48.908;1.870;2023-03-01T10:56:27;22.70;;;8.93;;
71360;SDS011;59166;48.908;1.870;2023-03-01T11:01:29;22.67;;;9.70;;
71360;SDS011;59166;48.908;1.870;2023-03-01T11:06:33;16.75;;;7.47;;
71360;SDS011;59166;48.908;1.870;2023-03-01T11:11:35;23.47;;;9.77;;
71360;SDS011;59166;48.908;1.870;2023-03-01T11:16:37;21.70;;;9.95;;
71360;SDS011;59166;48.908;1.870;2023-03-01T11:21:41;19.73;;;9.13;;
71360;SDS011;59166;48.908;1.870;2023-03-01T11:26:49;21.97;;;9.00;;
71360;SDS011;59166;48.908;1.870;2023-03-01T11:31:53;14.97;;;6.43;;
71360;SDS011;59166;48.908;1.870;2023-03-01T11:37:01;12.98;;;5.78;;
71360;SDS011;59166;48.908;1.870;2023-03-01T11:42:10;16.83;;;7.13;;
71360;SDS011;59166;48.908;1.870;2023-03-01T11:47:22;19.50;;;9.00;;
71360;SDS011;59166;48.908;1.870;2023-03-01T11:52:36;20.65;;;9.65;;
71360;SDS011;59166;48.908;1.870;2023-03-01T11:57:53;13.13;;;5.78;;
71360;SDS011;59166;48.908;1.870;2023-03-01T12:03:11;20.43;;;9.30;;
71360;SDS011;59166;48.908;1.870;2023-03-01T12:08:25;20.08;;;9.70;;
71360;SDS011;59166;48.908;1.870;2023-03-01T12:13:42;21.15;;;9.32;;
71360;SDS011;59166;48.908;1.870;2023-03-01T12:19:14;13.23;;;5.40;;
71360;SDS011;59166;48.908;1.870;2023-03-01T12:24:47;17.27;;;7.10;;
71360;SDS011;59166;48.908;1.870;2023-03-01T12:30:19;19.90;;;9.25;;
71360;SDS011;59166;48.908;1.870;2023-03-01T12:35:35;16.95;;;8.02;;
71360;SDS011;59166;48.908;1.870;2023-03-01T12:40:56;18.33;;;7.53;;
71360;SDS011;59166;48.908;1.870;2023-03-01T12:51:50;17.42;;;7.97;;
71360;SDS011;59166;48.908;1.870;2023-03-01T12:56:59;20.83;;;9.80;;
71360;SDS011;59166;48.908;1.870;2023-03-01T13:02:10;11.27;;;5.43;;
71360;SDS011;59166;48.908;1.870;2023-03-01T13:07:20;20.77;;;9.45;;
71360;SDS011;59166;48.908;1.870;2023-03-01T13:12:45;18.83;;;9.57;;
71360;SDS011;59166;48.908;1.870;2023-03-01T13:17:50;21.70;;;9.97;;
71360;SDS011;59166;48.908;1.870;2023-03-01T13:23:00;20.35;;;9.80;;
71360;SDS011;59166;48.908;1.870;2023-03-01T13:33:42;16.93;;;7.67;;
71360;SDS011;59166;48.908;1.870;2023-03-01T13:38:45;17.13;;;8.25;;
71360;SDS011;59166;48.908;1.870;2023-03-01T13:43:49;20.40;;;9.38;;
71360;SDS011;59166;48.908;1.870;2023-03-01T13:48:51;17.50;;;7.17;;
71360;SDS011;59166;48.908;1.870;2023-03-01T13:53:55;20.08;;;9.43;;
71360;SDS011;59166;48.908;1.870;2023-03-01T13:58:59;19.92;;;9.48;;
71360;SDS011;59166;48.908;1.870;2023-03-01T14:04:17;14.60;;;6.37;;
71360;SDS011;59166;48.908;1.870;2023-03-01T14:09:21;19.07;;;9.83;;
71360;SDS011;59166;48.908;1.870;2023-03-01T14:14:34;20.95;;;9.20;;
71360;SDS011;59166;48.908;1.870;2023-03-01T14:19:48;22.45;;;10.80;;
71360;SDS011;59166;48.908;1.870;2023-03-01T14:24:56;23.90;;;9.73;;
71360;SDS011;59166;48.908;1.870;2023-03-01T14:30:02;17.90;;;8.05;;
71360;SDS011;59166;48.908;1.870;2023-03-01T14:35:19;20.00;;;8.93;;
71360;SDS011;59166;48.908;1.870;2023-03-01T14:40:22;21.43;;;9.87;;
71360;SDS011;59166;48.908;1.870;2023-03-01T14:45:27;19.45;;;8.60;;
71360;SDS011;59166;48.908;1.870;2023-03-01T14:50:30;21.95;;;9.98;;
71360;SDS011;59166;48.908;1.870;2023-03-01T14:55:33;20.53;;;9.60;;
71360;SDS011;59166;48.908;1.870;2023-03-01T15:00:38;18.47;;;8.87;;
71360;SDS011;59166;48.908;1.870;2023-03-01T15:05:43;18.05;;;9.05;;
71360;SDS011;59166;48.908;1.870;2023-03-01T15:10:55;19.85;;;9.85;;
71360;SDS011;59166;48.908;1.870;2023-03-01T15:16:03;20.37;;;9.67;;
71360;SDS011;59166;48.908;1.870;2023-03-01T15:21:07;21.77;;;9.88;;
71360;SDS011;59166;48.908;1.870;2023-03-01T15:26:20;18.88;;;8.73;;
71360;SDS011;59166;48.908;1.870;2023-03-01T15:31:25;20.10;;;9.00;;
71360;SDS011;59166;48.908;1.870;2023-03-01T15:36:31;16.45;;;7.68;;
71360;SDS011;59166;48.908;1.870;2023-03-01T15:41:37;20.15;;;9.32;;
71360;SDS011;59166;48.908;1.870;2023-03-01T15:46:49;23.17;;;9.90;;
71360;SDS011;59166;48.908;1.870;2023-03-01T15:51:49;19.33;;;9.23;;
71360;SDS011;59166;48.908;1.870;2023-03-01T15:56:51;21.33;;;9.25;;
71360;SDS011;59166;48.908;1.870;2023-03-01T16:01:53;18.60;;;8.03;;
71360;SDS011;59166;48.908;1.870;2023-03-01T16:06:54;19.05;;;8.77;;
71360;SDS011;59166;48.908;1.870;2023-03-01T16:11:55;22.83;;;9.30;;
71360;SDS011;59166;48.908;1.870;2023-03-01T16:16:57;21.50;;;9.03;;
71360;SDS011;59166;48.908;1.870;2023-03-01T16:21:57;21.08;;;8.90;;
71360;SDS011;59166;48.908;1.870;2023-03-01T16:26:58;18.13;;;8.97;;
71360;SDS011;59166;48.908;1.870;2023-03-01T16:32:01;17.35;;;8.07;;
71360;SDS011;59166;48.908;1.870;2023-03-01T16:37:01;20.27;;;8.97;;
71360;SDS011;59166;48.908;1.870;2023-03-01T16:42:02;18.25;;;8.32;;
71360;SDS011;59166;48.908;1.870;2023-03-01T16:47:04;18.43;;;8.43;;
71360;SDS011;59166;48.908;1.870;2023-03-01T16:52:05;19.83;;;7.90;;
71360;SDS011;59166;48.908;1.870;2023-03-01T16:57:05;18.33;;;8.00;;
71360;SDS011;59166;48.908;1.870;2023-03-01T17:02:08;17.37;;;7.67;;
71360;SDS011;59166;48.908;1.870;2023-03-01T17:07:10;17.20;;;7.85;;
71360;SDS011;59166;48.908;1.870;2023-03-01T17:12:11;14.10;;;5.00;;
71360;SDS011;59166;48.908;1.870;2023-03-01T17:17:14;18.33;;;8.15;;
71360;SDS011;59166;48.908;1.870;2023-03-01T17:22:14;18.10;;;8.23;;
71360;SDS011;59166;48.908;1.870;2023-03-01T17:27:15;19.13;;;8.07;;
71360;SDS011;59166;48.908;1.870;2023-03-01T17:32:17;15.83;;;6.73;;
71360;SDS011;59166;48.908;1.870;2023-03-01T17:37:18;17.92;;;6.97;;
71360;SDS011;59166;48.908;1.870;2023-03-01T17:42:19;19.33;;;8.57;;
71360;SDS011;59166;48.908;1.870;2023-03-01T17:47:21;21.75;;;9.45;;
71360;SDS011;59166;48.908;1.870;2023-03-01T17:52:21;19.00;;;7.93;;
71360;SDS011;59166;48.908;1.870;2023-03-01T17:57:22;21.63;;;10.07;;
71360;SDS011;59166;48.908;1.870;2023-03-01T18:02:24;22.23;;;9.43;;
71360;SDS011;59166;48.908;1.870;2023-03-01T18:07:25;22.92;;;9.35;;
71360;SDS011;59166;48.908;1.870;2023-03-01T18:12:25;21.83;;;9.97;;
71360;SDS011;59166;48.908;1.870;2023-03-01T18:17:27;27.20;;;10.67;;
71360;SDS011;59166;48.908;1.870;2023-03-01T18:22:28;24.90;;;10.80;;
71360;SDS011;59166;48.908;1.870;2023-03-01T18:27:29;25.67;;;9.90;;
71360;SDS011;59166;48.908;1.870;2023-03-01T18:32:32;24.30;;;10.10;;
71360;SDS011;59166;48.908;1.870;2023-03-01T18:37:32;24.77;;;10.68;;
71360;SDS011;59166;48.908;1.870;2023-03-01T18:42:33;21.43;;;9.63;;
71360;SDS011;59166;48.908;1.870;2023-03-01T18:47:35;24.97;;;9.27;;
71360;SDS011;59166;48.908;1.870;2023-03-01T18:52:36;22.70;;;10.10;;
71360;SDS011;59166;48.908;1.870;2023-03-01T18:57:36;20.53;;;8.87;;
71360;SDS011;59166;48.908;1.870;2023-03-01T19:02:38;24.83;;;10.93;;
71360;SDS011;59166;48.908;1.870;2023-03-01T19:07:39;33.33;;;12.77;;
71360;SDS011;59166;48.908;1.870;2023-03-01T19:12:39;32.13;;;13.25;;
71360;SDS011;59166;48.908;1.870;2023-03-01T19:17:41;28.47;;;12.70;;
71360;SDS011;59166;48.908;1.870;2023-03-01T19:22:42;30.58;;;14.23;;
71360;SDS011;59166;48.908;1.870;2023-03-01T19:27:43;36.03;;;13.30;;
71360;SDS011;59166;48.908;1.870;2023-03-01T19:32:45;33.43;;;14.23;;
71360;SDS011;59166;48.908;1.870;2023-03-01T19:37:46;30.48;;;13.77;;
71360;SDS011;59166;48.908;1.870;2023-03-01T19:42:46;32.17;;;13.57;;
71360;SDS011;59166;48.908;1.870;2023-03-01T19:47:48;31.25;;;13.65;;
71360;SDS011;59166;48.908;1.870;2023-03-01T19:52:49;27.80;;;12.73;;
71360;SDS011;59166;48.908;1.870;2023-03-01T19:57:49;29.97;;;14.53;;
71360;SDS011;59166;48.908;1.870;2023-03-01T20:02:51;28.87;;;13.27;;
71360;SDS011;59166;48.908;1.870;2023-03-01T20:07:53;26.73;;;11.93;;
71360;SDS011;59166;48.908;1.870;2023-03-01T20:12:53;31.05;;;12.95;;
71360;SDS011;59166;48.908;1.870;2023-03-01T20:17:55;32.43;;;13.00;;
71360;SDS011;59166;48.908;1.870;2023-03-01T20:22:56;31.70;;;13.52;;
71360;SDS011;59166;48.908;1.870;2023-03-01T20:27:57;32.87;;;13.43;;
71360;SDS011;59166;48.908;1.870;2023-03-01T20:32:59;28.38;;;10.88;;
71360;SDS011;59166;48.908;1.870;2023-03-01T20:38:00;28.30;;;11.83;;
71360;SDS011;59166;48.908;1.870;2023-03-01T20:43:01;25.83;;;10.38;;
71360;SDS011;59166;48.908;1.870;2023-03-01T20:48:03;25.40;;;11.17;;
71360;SDS011;59166;48.908;1.870;2023-03-01T20:53:04;27.42;;;10.13;;
71360;SDS011;59166;48.908;1.870;2023-03-01T20:58:04;29.80;;;11.20;;
71360;SDS011;59166;48.908;1.870;2023-03-01T21:03:07;28.70;;;11.90;;
71360;SDS011;59166;48.908;1.870;2023-03-01T21:08:07;29.33;;;11.07;;
71360;SDS011;59166;48.908;1.870;2023-03-01T21:13:08;30.00;;;10.77;;
71360;SDS011;59166;48.908;1.870;2023-03-01T21:18:10;29.97;;;11.20;;
71360;SDS011;59166;48.908;1.870;2023-03-01T21:23:10;26.70;;;9.32;;
71360;SDS011;59166;48.908;1.870;2023-03-01T21:28:11;24.90;;;8.90;;
71360;SDS011;59166;48.908;1.870;2023-03-01T21:33:13;28.07;;;11.70;;
71360;SDS011;59166;48.908;1.870;2023-03-01T21:38:14;33.03;;;12.60;;
71360;SDS011;59166;48.908;1.870;2023-03-01T21:43:14;31.13;;;13.10;;
71360;SDS011;59166;48.908;1.870;2023-03-01T21:48:16;31.03;;;13.10;;
71360;SDS011;59166;48.908;1.870;2023-03-01T21:53:17;28.13;;;11.13;;
71360;SDS011;59166;48.908;1.870;2023-03-01T21:58:17;28.83;;;11.13;;
71360;SDS011;59166;48.908;1.870;2023-03-01T22:03:20;27.35;;;11.55;;
71360;SDS011;59166;48.908;1.870;2023-03-01T22:08:20;27.10;;;11.13;;
71360;SDS011;59166;48.908;1.870;2023-03-01T22:13:21;26.47;;;10.10;;
71360;SDS011;59166;48.908;1.870;2023-03-01T22:18:23;28.43;;;11.43;;
71360;SDS011;59166;48.908;1.870;2023-03-01T22:23:24;28.67;;;10.95;;
71360;SDS011;59166;48.908;1.870;2023-03-01T22:28:24;28.20;;;11.57;;
71360;SDS011;59166;48.908;1.870;2023-03-01T22:33:26;27.47;;;11.17;;
71360;SDS011;59166;48.908;1.870;2023-03-01T22:38:27;27.27;;;10.18;;
71360;SDS011;59166;48.908;1.870;2023-03-01T22:43:28;24.33;;;10.60;;
71360;SDS011;59166;48.908;1.870;2023-03-01T22:48:31;25.17;;;10.23;;
71360;SDS011;59166;48.908;1.870;2023-03-01T22:53:32;23.75;;;9.98;;
71360;SDS011;59166;48.908;1.870;2023-03-01T22:58:32;23.40;;;8.03;;
71360;SDS011;59166;48.908;1.870;2023-03-01T23:03:35;25.52;;;9.65;;
71360;SDS011;59166;48.908;1.870;2023-03-01T23:08:36;20.57;;;8.03;;
71360;SDS011;59166;48.908;1.870;2023-03-01T23:13:37;27.70;;;10.07;;
71360;SDS011;59166;48.908;1.870;2023-03-01T23:18:39;28.93;;;10.03;;
71360;SDS011;59166;48.908;1.870;2023-03-01T23:23:40;18.23;;;6.00;;
71360;SDS011;59166;48.908;1.870;2023-03-01T23:28:41;23.77;;;9.00;;
71360;SDS011;59166;48.908;1.870;2023-03-01T23:33:44;23.80;;;9.97;;
71360;SDS011;59166;48.908;1.870;2023-03-01T23:38:45;25.13;;;9.52;;
71360;SDS011;59166;48.908;1.870;2023-03-01T23:43:47;26.33;;;9.70;;
71360;SDS011;59166;48.908;1.870;2023-03-01T23:48:51;28.53;;;11.10;;
71360;SDS011;59166;48.908;1.870;2023-03-01T23:53:53;30.05;;;10.63;;
71360;SDS011;59166;48.908;1.870;2023-03-01T23:58:55;23.33;;;9.95;;
